• Join FlightAware (Why Join?)
  • Login
  • US Flag 
11:01AM EDT


 

Airport Tracker/Info


-or-


 

Live Flight TrackerFlight Track Log ✈ SWA738 ✈ 22-Oct-2013 ✈ KSTL - KLGA

Flight Track Log - Related Links

Times and Time Zones

All times are in EDT time to prevent confusion due to time zone crossing. See the SWA738 flight status page for this flight to view local times or setup timezone preferences in your user account.

Time Position Orientation Groundspeed Altitude Reporting Facility
EDT Latitude Longitude Course Direction KTS MPH feet Rate Location/Type
08:32PM 38.8500 -90.3667 27° Northeast 291 335 6,900  Level Gateway (St. Louis) TRACON
08:33PM 38.8333 -90.2667 102° East 329 379 11,100 3,540 Climbing Gateway (St. Louis) TRACON
08:35PM 38.8317 -90.1214 91° East 350 403 14,600 2,400 Climbing Kansas City Center
08:36PM 38.8239 -89.9847 94° East 374 430 16,300 2,340 Climbing Kansas City Center
08:37PM 38.9577 -89.2924 76° East  Level Estimated
08:37PM 38.8153 -89.8456 94° East 385 443 19,400  Level Kansas City Center
08:38PM 38.8050 -89.6950 95° East 411 473 22,500 2,880 Climbing Kansas City Center
08:39PM 38.7936 -89.5158 95° East 435 501 25,400 2,580 Climbing Kansas City Center
08:40PM 38.8119 -89.3514 82° East 463 533 27,800 1,740 Climbing Kansas City Center
08:41PM 38.8347 -89.1706 81° East 475 547 29,000 1,380 Climbing Kansas City Center
08:42PM 38.8558 -89.0028 81° East 477 549 30,700 1,500 Climbing Kansas City Center
08:43PM 38.8794 -88.8372 80° East 486 559 32,100 1,080 Climbing Kansas City Center
08:44PM 38.9014 -88.6558 81° East 508 585 33,000 780 Climbing Kansas City Center
08:45PM 38.9256 -88.4806 80° East 518 596 33,700 1,020 Climbing Kansas City Center
08:46PM 38.9969 -88.2711 66° East 524 603 35,100 1,140 Climbing Kansas City Center
08:47PM 39.0561 -88.0914 67° East 536 617 36,100 1,200 Climbing Kansas City Center
08:48PM 39.1025 -87.9458 68° East 552 635 37,500 2,040 Climbing Indianapolis Center
08:49PM 39.1581 -87.7756 67° East 518 596 40,100 1,680 Climbing Indianapolis Center
08:50PM 39.2111 -87.6106 67° East 502 578 41,000 420 Climbing Indianapolis Center
08:51PM 39.2656 -87.4436 67° East 506 582 41,000  Level Indianapolis Center
08:52PM 39.3203 -87.2728 67° East 516 594 41,000  Level Indianapolis Center
08:53PM 39.3847 -87.0667 68° East 518 596 41,000  Level Indianapolis Center
08:54PM 39.4397 -86.8942 68° East 520 598 41,000  Level Indianapolis Center
08:55PM 39.4942 -86.7208 68° East 522 601 41,000  Level Indianapolis Center
08:56PM 39.5467 -86.5492 68° East 519 597 41,000  Level Indianapolis Center
08:57PM 39.5994 -86.3789 68° East 518 596 41,000  Level Indianapolis Center
08:58PM 39.6608 -86.1775 68° East 518 596 41,000  Level Indianapolis Center
08:59PM 39.7128 -86.0081 68° East 518 596 41,000  Level Indianapolis Center
09:00PM 39.7656 -85.8342 68° East 521 600 41,000  Level Indianapolis Center
09:01PM 39.8183 -85.6603 68° East 522 601 41,000  Level Indianapolis Center
09:02PM 39.8711 -85.4839 69° East 525 604 41,000  Level Indianapolis Center
09:03PM 39.9389 -85.3175 62° Northeast 522 601 41,000  Level Indianapolis Center
09:04PM 40.0069 -85.1517 62° Northeast 522 601 41,000  Level Indianapolis Center
09:05PM 40.0881 -84.9506 62° Northeast 525 604 41,000  Level Indianapolis Center
09:06PM 40.1453 -84.8050 63° Northeast 525 604 41,000  Level Indianapolis Center
09:07PM 40.2278 -84.6006 62° Northeast 528 608 41,000  Level Indianapolis Center
09:08PM 40.2950 -84.4289 63° Northeast 529 609 41,000  Level Indianapolis Center
09:09PM 40.3636 -84.2572 62° Northeast 529 609 41,000  Level Indianapolis Center
09:10PM 40.4308 -84.0853 63° Northeast 528 608 41,000  Level Indianapolis Center
09:11PM 40.4978 -83.9133 63° Northeast 527 606 41,000  Level Indianapolis Center
09:12PM 40.5656 -83.7372 63° Northeast 535 616 41,000  Level Indianapolis Center
09:13PM 40.6333 -83.5600 63° Northeast 539 620 41,000  Level Indianapolis Center
09:14PM 40.7019 -83.3822 63° Northeast 543 625 41,000  Level Indianapolis Center
09:15PM 40.7519 -83.1942 71° East 547 629 41,000  Level Indianapolis Center
09:16PM 40.7753 -82.9811 82° East 547 629 41,000  Level Indianapolis Center
09:17PM 40.7969 -82.7817 82° East 546 628 41,000  Level Indianapolis Center
09:18PM 40.8192 -82.5839 81° East 543 625 41,000  Level Indianapolis Center
09:20PM 40.8403 -82.3858 82° East 542 624 41,000  Level Indianapolis Center
09:21PM 40.8608 -82.1886 82° East 541 623 41,000  Level Indianapolis Center
09:21PM 40.8750 -82.0567 82° East 538 619 41,000  Level Cleveland Center
09:22PM 40.8953 -81.8592 82° East 542 624 41,000  Level Cleveland Center
09:23PM 40.9147 -81.6642 82° East 539 620 41,000  Level Cleveland Center
09:24PM 40.9350 -81.4692 82° East 537 618 41,000  Level Cleveland Center
09:25PM 40.9561 -81.2431 83° East 532 612 41,000  Level Cleveland Center
09:26PM 40.9744 -81.0461 83° East 533 613 41,000  Level Cleveland Center
09:27PM 40.9917 -80.8492 83° East 536 617 41,000  Level Cleveland Center
09:28PM 41.0114 -80.6522 82° East 538 619 41,000  Level Cleveland Center
09:29PM 41.0286 -80.4544 83° East 539 620 41,000  Level Cleveland Center
09:30PM 41.0472 -80.2556 83° East 541 623 41,000  Level Cleveland Center
09:31PM 41.0636 -80.0569 84° East 540 621 41,000  Level Cleveland Center
09:32PM 41.0817 -79.8581 83° East 542 624 41,000  Level Cleveland Center
09:33PM 41.0983 -79.6586 84° East 543 625 41,000  Level Cleveland Center
09:34PM 41.1150 -79.4608 84° East 540 621 41,000  Level Cleveland Center
09:35PM 41.1328 -79.2486 84° East 539 620 41,000  Level Cleveland Center
09:37PM 41.1481 -79.0525 84° East 537 618 41,000  Level Cleveland Center
09:38PM 41.1661 -78.8294 84° East 538 619 41,000  Level Cleveland Center
09:39PM 41.1808 -78.6306 84° East 541 623 41,000  Level Cleveland Center
09:40PM 41.1950 -78.4314 85° East 542 624 41,000  Level Cleveland Center
09:40PM 41.2069 -78.2783 84° East 540 621 41,000 -720 Level New York Center
09:41PM 41.2067 -78.0825 90° East 540 621 39,800 -1,680 Descending New York Center
09:42PM 41.1831 -77.8869 99° East 535 616 37,700 -1,980 Descending New York Center
09:43PM 41.1575 -77.6828 99° East 547 629 35,900 -1,380 Descending New York Center
09:44PM 41.1317 -77.4819 100° East 547 629 35,000 -900 Descending New York Center
09:45PM 41.1031 -77.2833 101° East 552 635 34,100 -960 Descending New York Center
09:46PM 41.0767 -77.0772 100° East 552 635 33,100 -1,800 Descending New York Center
09:47PM 41.0500 -76.8711 100° East 552 635 30,500 -3,180 Descending New York Center
09:48PM 41.0206 -76.6703 101° East 552 635 26,800 -3,480 Descending New York Center
09:49PM 40.9775 -76.4853 107° East 540 621 23,600 -2,700 Descending New York Center
09:50PM 40.9358 -76.3142 108° East 515 593 21,500 -1,800 Descending New York Center
09:51PM 40.8922 -76.1294 107° East 488 562 20,100 -1,980 Descending New York Center
09:52PM 40.8606 -76.0006 108° East 472 543 17,600 -2,880 Descending New York Center
09:53PM 40.8200 -75.8303 107° East 453 521 14,400 -2,340 Descending New York Center
09:54PM 40.7828 -75.6739 107° East 414 476 13,000 -720 Descending New York Center
09:55PM 40.7425 -75.5342 111° Southeast 400 460 13,000  Level New York Center
09:56PM 40.7036 -75.4164 114° Southeast 400 460 13,000 -60 Level New York Center
09:57PM 40.6586 -75.2819 114° Southeast 400 460 12,900 -600 Descending New York Center
09:58PM 40.6100 -75.1367 114° Southeast 395 455 11,800 -1,440 Descending New York Center
09:59PM 40.5689 -75.0083 113° Southeast 389 448 10,100 -900 Descending New York Center
10:00PM 40.5333 -74.8917 112° Southeast 384 442 10,000 -60 Descending New York Center
10:01PM 40.4942 -74.7636 112° Southeast 356 410 10,000  Level New York Center
10:02PM 40.4658 -74.6692 111° Southeast 312 359 10,000  Level New York Center
10:03PM 40.4500 -74.6000 107° East 309 356 10,000 -600 Level New York TRACON
10:04PM 40.4333 -74.5000 102° East 315 362 9,200 -1,020 Descending New York TRACON
10:05PM 40.4667 -74.3833 69° East 310 357 8,000 -1,020 Descending New York TRACON
10:06PM 40.5000 -74.2833 66° East 302 348 7,200 -540 Descending New York TRACON
10:07PM 40.5167 -74.1833 78° East 295 339 7,000 -900 Descending New York TRACON
10:08PM 40.6033 -74.0647 46° Northeast 278 320 4,900 -1,380 Descending New York Center
10:09PM 40.6333 -74.0333 38° Northeast 274 315 4,200 -600 Descending New York TRACON
10:10PM 40.6833 -73.9667 45° Northeast 269 310 4,000 -600 Descending New York TRACON
10:11PM 40.7333 -73.8833 52° Northeast 274 315 3,000 -540 Descending New York TRACON
10:12PM 40.7667 -73.8167 57° Northeast 231 266 3,000  Level New York TRACON
10:13PM 40.8000 -73.7500 57° Northeast 221 254 3,000 -180 Level New York TRACON
10:14PM 40.8500 -73.7333 14° North 191 220 2,700 -480 Descending New York TRACON
10:15PM 40.8667 -73.7833 294° West 169 194 2,100 -780 Descending New York TRACON
10:16PM 40.8333 -73.8333 229° Southwest 150 173 1,100 -840 Descending New York TRACON
10:17PM 40.8000 -73.8667 217° Southwest 137 158 300 -840 Descending New York TRACON
10:19PM 40.7772 -73.8726 258° West  Level Estimated
10:26PM 40.7772 -73.8726 258° West  Level Estimated